Tarnby, Denmark
Current Conditions -  °F | °C
As of 8:50 PM on Saturday 25 Oct 2014 (Local Time) from EKCH Reporting Station
Broken Clouds Broken Clouds  
Wind Chill: 54°   Ceiling: 700
Heat Index: 54°   Visibility: 4mi
Dew Point: 52°   Wind: 9mph
Humidity: 94%   Direction: 220°SW
Pressure: 30.03"   Gusts: NA
Location:  55.63°N, 12.6°E
Report Text: EKCH 251850Z 22008KT 6000 BKN007 BKN023 12/11 Q1017 BECMGSCT007
Loading
Personal Weather Stations






























Interactive Weather Map
Tropical Storm Tracking
New forecast layout! Learn more

10-Day Weather Forecast

Advertisements
Track Severe Weather on mobile